sensor_id;sensor_type;location;lat;lon;timestamp;P1;durP1;ratioP1;P2;durP2;ratioP2
24383;SDS011;12504;52.870;8.798;2024-01-07T00:02:05;18.60;;;8.68;;
24383;SDS011;12504;52.870;8.798;2024-01-07T00:04:31;17.52;;;7.90;;
24383;SDS011;12504;52.870;8.798;2024-01-07T00:06:59;14.38;;;6.20;;
24383;SDS011;12504;52.870;8.798;2024-01-07T00:09:25;15.77;;;7.75;;
24383;SDS011;12504;52.870;8.798;2024-01-07T00:11:51;15.07;;;8.77;;
24383;SDS011;12504;52.870;8.798;2024-01-07T00:14:17;16.40;;;7.05;;
24383;SDS011;12504;52.870;8.798;2024-01-07T00:16:43;21.08;;;8.25;;
24383;SDS011;12504;52.870;8.798;2024-01-07T00:19:10;13.48;;;6.32;;
24383;SDS011;12504;52.870;8.798;2024-01-07T00:21:36;14.98;;;7.93;;
24383;SDS011;12504;52.870;8.798;2024-01-07T00:24:02;20.77;;;7.35;;
24383;SDS011;12504;52.870;8.798;2024-01-07T00:26:28;14.10;;;7.60;;
24383;SDS011;12504;52.870;8.798;2024-01-07T00:28:54;17.67;;;7.75;;
24383;SDS011;12504;52.870;8.798;2024-01-07T00:31:20;15.30;;;6.10;;
24383;SDS011;12504;52.870;8.798;2024-01-07T00:33:46;15.13;;;6.35;;
24383;SDS011;12504;52.870;8.798;2024-01-07T00:36:12;15.57;;;7.72;;
24383;SDS011;12504;52.870;8.798;2024-01-07T00:38:38;10.90;;;5.13;;
24383;SDS011;12504;52.870;8.798;2024-01-07T00:41:04;11.70;;;6.05;;
24383;SDS011;12504;52.870;8.798;2024-01-07T00:43:30;11.50;;;6.93;;
24383;SDS011;12504;52.870;8.798;2024-01-07T00:45:57;11.25;;;5.78;;
24383;SDS011;12504;52.870;8.798;2024-01-07T00:48:23;10.63;;;6.15;;
24383;SDS011;12504;52.870;8.798;2024-01-07T00:50:49;13.45;;;6.70;;
24383;SDS011;12504;52.870;8.798;2024-01-07T00:53:15;14.88;;;5.93;;
24383;SDS011;12504;52.870;8.798;2024-01-07T00:55:42;12.65;;;5.88;;
24383;SDS011;12504;52.870;8.798;2024-01-07T00:58:08;14.10;;;5.80;;
24383;SDS011;12504;52.870;8.798;2024-01-07T01:00:34;15.38;;;6.25;;
24383;SDS011;12504;52.870;8.798;2024-01-07T01:03:00;8.48;;;4.53;;
24383;SDS011;12504;52.870;8.798;2024-01-07T01:05:26;10.02;;;5.25;;
24383;SDS011;12504;52.870;8.798;2024-01-07T01:07:52;11.55;;;4.70;;
24383;SDS011;12504;52.870;8.798;2024-01-07T01:10:18;11.23;;;5.35;;
24383;SDS011;12504;52.870;8.798;2024-01-07T01:12:45;9.93;;;5.40;;
24383;SDS011;12504;52.870;8.798;2024-01-07T01:15:11;10.95;;;4.97;;
24383;SDS011;12504;52.870;8.798;2024-01-07T01:17:37;12.95;;;5.22;;
24383;SDS011;12504;52.870;8.798;2024-01-07T01:20:04;11.63;;;4.97;;
24383;SDS011;12504;52.870;8.798;2024-01-07T01:22:30;12.18;;;5.20;;
24383;SDS011;12504;52.870;8.798;2024-01-07T01:24:56;9.85;;;5.05;;
24383;SDS011;12504;52.870;8.798;2024-01-07T01:27:22;12.18;;;6.03;;
24383;SDS011;12504;52.870;8.798;2024-01-07T01:29:49;7.55;;;3.53;;
24383;SDS011;12504;52.870;8.798;2024-01-07T01:32:15;9.55;;;4.75;;
24383;SDS011;12504;52.870;8.798;2024-01-07T01:34:41;6.78;;;3.80;;
24383;SDS011;12504;52.870;8.798;2024-01-07T01:37:08;13.93;;;6.00;;
24383;SDS011;12504;52.870;8.798;2024-01-07T01:39:34;10.88;;;5.35;;
24383;SDS011;12504;52.870;8.798;2024-01-07T01:42:00;8.40;;;4.30;;
24383;SDS011;12504;52.870;8.798;2024-01-07T01:44:26;15.52;;;5.25;;
24383;SDS011;12504;52.870;8.798;2024-01-07T01:46:53;8.15;;;4.45;;
24383;SDS011;12504;52.870;8.798;2024-01-07T01:49:20;11.82;;;4.35;;
24383;SDS011;12504;52.870;8.798;2024-01-07T01:51:46;10.95;;;4.80;;
24383;SDS011;12504;52.870;8.798;2024-01-07T01:54:12;13.90;;;5.90;;
24383;SDS011;12504;52.870;8.798;2024-01-07T01:56:38;11.73;;;4.80;;
24383;SDS011;12504;52.870;8.798;2024-01-07T01:59:05;11.95;;;4.53;;
24383;SDS011;12504;52.870;8.798;2024-01-07T02:01:31;12.00;;;5.45;;
24383;SDS011;12504;52.870;8.798;2024-01-07T02:03:57;9.95;;;4.75;;
24383;SDS011;12504;52.870;8.798;2024-01-07T02:06:23;8.98;;;4.65;;
24383;SDS011;12504;52.870;8.798;2024-01-07T02:08:50;11.93;;;4.75;;
24383;SDS011;12504;52.870;8.798;2024-01-07T02:13:42;12.20;;;5.20;;
24383;SDS011;12504;52.870;8.798;2024-01-07T02:16:08;9.60;;;4.65;;
24383;SDS011;12504;52.870;8.798;2024-01-07T02:18:35;8.50;;;5.07;;
24383;SDS011;12504;52.870;8.798;2024-01-07T02:21:02;12.68;;;5.00;;
24383;SDS011;12504;52.870;8.798;2024-01-07T02:23:28;13.48;;;4.47;;
24383;SDS011;12504;52.870;8.798;2024-01-07T02:25:54;9.30;;;4.45;;
24383;SDS011;12504;52.870;8.798;2024-01-07T02:28:20;15.23;;;5.35;;
24383;SDS011;12504;52.870;8.798;2024-01-07T02:30:46;11.77;;;5.80;;
24383;SDS011;12504;52.870;8.798;2024-01-07T02:33:12;9.18;;;4.63;;
24383;SDS011;12504;52.870;8.798;2024-01-07T02:35:38;12.13;;;5.30;;
24383;SDS011;12504;52.870;8.798;2024-01-07T02:38:05;8.48;;;3.88;;
24383;SDS011;12504;52.870;8.798;2024-01-07T02:40:31;7.97;;;4.05;;
24383;SDS011;12504;52.870;8.798;2024-01-07T02:42:57;11.50;;;5.60;;
24383;SDS011;12504;52.870;8.798;2024-01-07T02:45:23;16.75;;;4.68;;
24383;SDS011;12504;52.870;8.798;2024-01-07T02:47:49;12.80;;;4.90;;
24383;SDS011;12504;52.870;8.798;2024-01-07T02:50:16;8.25;;;4.75;;
24383;SDS011;12504;52.870;8.798;2024-01-07T02:52:42;10.27;;;5.22;;
24383;SDS011;12504;52.870;8.798;2024-01-07T02:55:08;9.45;;;5.63;;
24383;SDS011;12504;52.870;8.798;2024-01-07T02:57:34;12.82;;;5.70;;
24383;SDS011;12504;52.870;8.798;2024-01-07T03:00:00;12.63;;;5.00;;
24383;SDS011;12504;52.870;8.798;2024-01-07T03:02:27;13.68;;;5.63;;
24383;SDS011;12504;52.870;8.798;2024-01-07T03:04:54;12.70;;;5.72;;
24383;SDS011;12504;52.870;8.798;2024-01-07T03:07:20;14.20;;;5.65;;
24383;SDS011;12504;52.870;8.798;2024-01-07T03:09:47;9.00;;;5.05;;
24383;SDS011;12504;52.870;8.798;2024-01-07T03:12:14;12.13;;;5.95;;
24383;SDS011;12504;52.870;8.798;2024-01-07T03:14:41;13.88;;;5.78;;
24383;SDS011;12504;52.870;8.798;2024-01-07T03:17:07;10.30;;;5.35;;
24383;SDS011;12504;52.870;8.798;2024-01-07T03:19:33;13.30;;;5.93;;
24383;SDS011;12504;52.870;8.798;2024-01-07T03:21:59;11.70;;;5.07;;
24383;SDS011;12504;52.870;8.798;2024-01-07T03:24:26;15.65;;;5.43;;
24383;SDS011;12504;52.870;8.798;2024-01-07T03:26:52;11.30;;;5.28;;
24383;SDS011;12504;52.870;8.798;2024-01-07T03:29:18;9.48;;;4.88;;
24383;SDS011;12504;52.870;8.798;2024-01-07T03:31:44;13.10;;;5.78;;
24383;SDS011;12504;52.870;8.798;2024-01-07T03:34:10;10.88;;;5.40;;
24383;SDS011;12504;52.870;8.798;2024-01-07T03:36:36;10.32;;;4.35;;
24383;SDS011;12504;52.870;8.798;2024-01-07T03:39:02;10.32;;;5.07;;
24383;SDS011;12504;52.870;8.798;2024-01-07T03:41:28;10.50;;;4.97;;
24383;SDS011;12504;52.870;8.798;2024-01-07T03:43:54;14.63;;;3.85;;
24383;SDS011;12504;52.870;8.798;2024-01-07T03:46:21;14.77;;;6.32;;
24383;SDS011;12504;52.870;8.798;2024-01-07T03:48:48;7.88;;;4.63;;
24383;SDS011;12504;52.870;8.798;2024-01-07T03:51:15;8.38;;;4.38;;
24383;SDS011;12504;52.870;8.798;2024-01-07T03:53:41;6.75;;;3.83;;
24383;SDS011;12504;52.870;8.798;2024-01-07T03:56:07;6.10;;;3.63;;
24383;SDS011;12504;52.870;8.798;2024-01-07T03:58:33;8.15;;;4.00;;
24383;SDS011;12504;52.870;8.798;2024-01-07T04:01:00;8.35;;;3.63;;
24383;SDS011;12504;52.870;8.798;2024-01-07T04:03:26;9.38;;;4.22;;
24383;SDS011;12504;52.870;8.798;2024-01-07T04:05:52;9.55;;;3.50;;
24383;SDS011;12504;52.870;8.798;2024-01-07T04:08:18;8.77;;;3.63;;
24383;SDS011;12504;52.870;8.798;2024-01-07T04:10:44;6.63;;;3.53;;
24383;SDS011;12504;52.870;8.798;2024-01-07T04:13:10;7.40;;;3.33;;
24383;SDS011;12504;52.870;8.798;2024-01-07T04:15:36;6.93;;;2.50;;
24383;SDS011;12504;52.870;8.798;2024-01-07T04:18:03;7.88;;;2.45;;
24383;SDS011;12504;52.870;8.798;2024-01-07T04:20:29;5.75;;;3.20;;
24383;SDS011;12504;52.870;8.798;2024-01-07T04:22:56;8.25;;;3.65;;
24383;SDS011;12504;52.870;8.798;2024-01-07T04:25:22;6.63;;;3.67;;
24383;SDS011;12504;52.870;8.798;2024-01-07T04:27:49;9.00;;;3.85;;
24383;SDS011;12504;52.870;8.798;2024-01-07T04:30:15;7.20;;;3.78;;
24383;SDS011;12504;52.870;8.798;2024-01-07T04:32:41;7.93;;;3.42;;
24383;SDS011;12504;52.870;8.798;2024-01-07T04:35:07;6.78;;;2.70;;
24383;SDS011;12504;52.870;8.798;2024-01-07T04:37:34;6.97;;;3.53;;
24383;SDS011;12504;52.870;8.798;2024-01-07T04:40:01;5.95;;;3.10;;
24383;SDS011;12504;52.870;8.798;2024-01-07T04:42:27;9.25;;;3.90;;
24383;SDS011;12504;52.870;8.798;2024-01-07T04:44:53;5.45;;;3.38;;
24383;SDS011;12504;52.870;8.798;2024-01-07T04:47:26;6.43;;;3.33;;
24383;SDS011;12504;52.870;8.798;2024-01-07T04:49:53;5.28;;;3.08;;
24383;SDS011;12504;52.870;8.798;2024-01-07T04:52:19;7.75;;;3.00;;
24383;SDS011;12504;52.870;8.798;2024-01-07T04:54:45;6.40;;;3.22;;
24383;SDS011;12504;52.870;8.798;2024-01-07T04:57:11;3.60;;;2.08;;
24383;SDS011;12504;52.870;8.798;2024-01-07T04:59:37;4.90;;;2.33;;
24383;SDS011;12504;52.870;8.798;2024-01-07T05:02:03;7.05;;;3.55;;
24383;SDS011;12504;52.870;8.798;2024-01-07T05:04:29;6.28;;;3.00;;
24383;SDS011;12504;52.870;8.798;2024-01-07T05:06:55;6.13;;;3.13;;
24383;SDS011;12504;52.870;8.798;2024-01-07T05:09:21;7.78;;;3.67;;
24383;SDS011;12504;52.870;8.798;2024-01-07T05:11:47;5.90;;;2.35;;
24383;SDS011;12504;52.870;8.798;2024-01-07T05:14:13;3.67;;;2.40;;
24383;SDS011;12504;52.870;8.798;2024-01-07T05:16:39;3.58;;;2.30;;
24383;SDS011;12504;52.870;8.798;2024-01-07T05:19:05;7.07;;;3.78;;
24383;SDS011;12504;52.870;8.798;2024-01-07T05:21:31;6.65;;;3.38;;
24383;SDS011;12504;52.870;8.798;2024-01-07T05:23:57;8.50;;;3.15;;
24383;SDS011;12504;52.870;8.798;2024-01-07T05:26:24;2.85;;;2.55;;
24383;SDS011;12504;52.870;8.798;2024-01-07T05:28:50;10.55;;;3.45;;
24383;SDS011;12504;52.870;8.798;2024-01-07T05:31:17;4.25;;;2.20;;
24383;SDS011;12504;52.870;8.798;2024-01-07T05:33:46;8.18;;;2.47;;
24383;SDS011;12504;52.870;8.798;2024-01-07T05:36:12;4.30;;;2.15;;
24383;SDS011;12504;52.870;8.798;2024-01-07T05:38:38;4.70;;;2.33;;
24383;SDS011;12504;52.870;8.798;2024-01-07T05:41:04;3.15;;;2.17;;
24383;SDS011;12504;52.870;8.798;2024-01-07T05:43:31;6.05;;;2.97;;
24383;SDS011;12504;52.870;8.798;2024-01-07T05:45:57;7.28;;;3.35;;
24383;SDS011;12504;52.870;8.798;2024-01-07T05:48:23;12.13;;;3.20;;
24383;SDS011;12504;52.870;8.798;2024-01-07T05:50:49;8.95;;;2.95;;
24383;SDS011;12504;52.870;8.798;2024-01-07T05:53:16;7.85;;;2.65;;
24383;SDS011;12504;52.870;8.798;2024-01-07T05:55:43;4.22;;;2.00;;
24383;SDS011;12504;52.870;8.798;2024-01-07T05:58:09;6.72;;;3.45;;
24383;SDS011;12504;52.870;8.798;2024-01-07T06:00:35;3.65;;;2.75;;
24383;SDS011;12504;52.870;8.798;2024-01-07T06:03:01;5.22;;;2.55;;
24383;SDS011;12504;52.870;8.798;2024-01-07T06:05:27;4.03;;;1.83;;
24383;SDS011;12504;52.870;8.798;2024-01-07T06:07:53;5.45;;;2.47;;
24383;SDS011;12504;52.870;8.798;2024-01-07T06:10:19;4.22;;;2.50;;
24383;SDS011;12504;52.870;8.798;2024-01-07T06:12:46;4.15;;;2.45;;
24383;SDS011;12504;52.870;8.798;2024-01-07T06:15:12;3.90;;;2.60;;
24383;SDS011;12504;52.870;8.798;2024-01-07T06:17:38;7.97;;;2.20;;
24383;SDS011;12504;52.870;8.798;2024-01-07T06:20:05;4.63;;;2.42;;
24383;SDS011;12504;52.870;8.798;2024-01-07T06:22:31;5.40;;;3.22;;
24383;SDS011;12504;52.870;8.798;2024-01-07T06:24:57;4.22;;;2.05;;
24383;SDS011;12504;52.870;8.798;2024-01-07T06:27:24;2.70;;;1.40;;
24383;SDS011;12504;52.870;8.798;2024-01-07T06:29:50;5.00;;;2.38;;
24383;SDS011;12504;52.870;8.798;2024-01-07T06:32:16;4.45;;;3.00;;
24383;SDS011;12504;52.870;8.798;2024-01-07T06:34:42;5.38;;;2.25;;
24383;SDS011;12504;52.870;8.798;2024-01-07T06:37:08;5.45;;;2.03;;
24383;SDS011;12504;52.870;8.798;2024-01-07T06:39:35;3.67;;;1.92;;
24383;SDS011;12504;52.870;8.798;2024-01-07T06:42:01;4.30;;;1.92;;
24383;SDS011;12504;52.870;8.798;2024-01-07T06:44:27;4.43;;;1.55;;
24383;SDS011;12504;52.870;8.798;2024-01-07T06:46:53;5.03;;;1.83;;
24383;SDS011;12504;52.870;8.798;2024-01-07T06:49:19;4.00;;;1.45;;
24383;SDS011;12504;52.870;8.798;2024-01-07T06:51:45;2.83;;;1.25;;
24383;SDS011;12504;52.870;8.798;2024-01-07T06:54:11;2.58;;;1.75;;
24383;SDS011;12504;52.870;8.798;2024-01-07T06:56:38;1.77;;;1.30;;
24383;SDS011;12504;52.870;8.798;2024-01-07T06:59:04;4.53;;;1.70;;
24383;SDS011;12504;52.870;8.798;2024-01-07T07:01:30;4.63;;;2.10;;
24383;SDS011;12504;52.870;8.798;2024-01-07T07:03:56;4.70;;;2.55;;
24383;SDS011;12504;52.870;8.798;2024-01-07T07:06:22;2.50;;;1.70;;
24383;SDS011;12504;52.870;8.798;2024-01-07T07:08:59;2.42;;;1.25;;
24383;SDS011;12504;52.870;8.798;2024-01-07T07:11:25;3.22;;;1.30;;
24383;SDS011;12504;52.870;8.798;2024-01-07T07:13:51;4.85;;;1.45;;
24383;SDS011;12504;52.870;8.798;2024-01-07T07:16:17;5.28;;;1.63;;
24383;SDS011;12504;52.870;8.798;2024-01-07T07:18:43;2.67;;;1.65;;
24383;SDS011;12504;52.870;8.798;2024-01-07T07:21:09;2.80;;;1.60;;
24383;SDS011;12504;52.870;8.798;2024-01-07T07:23:35;2.00;;;1.33;;
24383;SDS011;12504;52.870;8.798;2024-01-07T07:26:01;3.53;;;1.75;;
24383;SDS011;12504;52.870;8.798;2024-01-07T07:28:27;1.35;;;1.17;;
24383;SDS011;12504;52.870;8.798;2024-01-07T07:30:53;3.97;;;1.77;;
24383;SDS011;12504;52.870;8.798;2024-01-07T07:33:19;5.43;;;1.60;;
24383;SDS011;12504;52.870;8.798;2024-01-07T07:35:45;3.05;;;1.30;;
24383;SDS011;12504;52.870;8.798;2024-01-07T07:38:12;1.70;;;1.40;;
24383;SDS011;12504;52.870;8.798;2024-01-07T07:40:38;6.50;;;1.67;;
24383;SDS011;12504;52.870;8.798;2024-01-07T07:43:04;7.15;;;2.42;;
24383;SDS011;12504;52.870;8.798;2024-01-07T07:45:30;3.63;;;2.13;;
24383;SDS011;12504;52.870;8.798;2024-01-07T07:47:56;4.03;;;1.83;;
24383;SDS011;12504;52.870;8.798;2024-01-07T07:50:22;7.10;;;1.98;;
24383;SDS011;12504;52.870;8.798;2024-01-07T07:52:49;2.75;;;1.55;;
24383;SDS011;12504;52.870;8.798;2024-01-07T07:55:15;6.20;;;1.98;;
24383;SDS011;12504;52.870;8.798;2024-01-07T07:57:41;2.30;;;1.35;;
24383;SDS011;12504;52.870;8.798;2024-01-07T08:00:07;4.97;;;2.13;;
24383;SDS011;12504;52.870;8.798;2024-01-07T08:02:37;2.92;;;1.42;;
24383;SDS011;12504;52.870;8.798;2024-01-07T08:05:04;3.70;;;2.08;;
24383;SDS011;12504;52.870;8.798;2024-01-07T08:07:30;2.55;;;1.50;;
24383;SDS011;12504;52.870;8.798;2024-01-07T08:09:56;4.28;;;2.50;;
24383;SDS011;12504;52.870;8.798;2024-01-07T08:12:23;8.93;;;4.72;;
24383;SDS011;12504;52.870;8.798;2024-01-07T08:14:49;32.72;;;10.88;;
24383;SDS011;12504;52.870;8.798;2024-01-07T08:17:15;96.50;;;33.83;;
24383;SDS011;12504;52.870;8.798;2024-01-07T08:19:41;69.70;;;27.20;;
24383;SDS011;12504;52.870;8.798;2024-01-07T08:22:08;131.50;;;58.22;;
24383;SDS011;12504;52.870;8.798;2024-01-07T08:24:37;43.15;;;21.52;;
24383;SDS011;12504;52.870;8.798;2024-01-07T08:27:03;29.40;;;16.45;;
24383;SDS011;12504;52.870;8.798;2024-01-07T08:29:30;33.22;;;16.80;;
24383;SDS011;12504;52.870;8.798;2024-01-07T08:31:57;14.00;;;8.20;;
24383;SDS011;12504;52.870;8.798;2024-01-07T08:34:23;13.30;;;7.65;;
24383;SDS011;12504;52.870;8.798;2024-01-07T08:36:49;12.55;;;8.85;;
24383;SDS011;12504;52.870;8.798;2024-01-07T08:39:16;6.03;;;4.72;;
24383;SDS011;12504;52.870;8.798;2024-01-07T08:41:42;11.48;;;8.00;;
24383;SDS011;12504;52.870;8.798;2024-01-07T08:44:09;11.48;;;5.05;;
24383;SDS011;12504;52.870;8.798;2024-01-07T08:46:35;16.17;;;11.82;;
24383;SDS011;12504;52.870;8.798;2024-01-07T08:49:02;17.77;;;13.32;;
24383;SDS011;12504;52.870;8.798;2024-01-07T08:51:28;13.52;;;8.18;;
24383;SDS011;12504;52.870;8.798;2024-01-07T08:53:54;24.73;;;14.60;;
24383;SDS011;12504;52.870;8.798;2024-01-07T08:56:22;15.77;;;9.73;;
24383;SDS011;12504;52.870;8.798;2024-01-07T08:58:48;17.73;;;11.27;;
24383;SDS011;12504;52.870;8.798;2024-01-07T09:01:14;10.60;;;6.72;;
24383;SDS011;12504;52.870;8.798;2024-01-07T09:03:41;20.00;;;11.50;;
24383;SDS011;12504;52.870;8.798;2024-01-07T09:06:07;12.88;;;8.85;;
24383;SDS011;12504;52.870;8.798;2024-01-07T09:08:33;7.32;;;5.63;;
24383;SDS011;12504;52.870;8.798;2024-01-07T09:11:00;12.40;;;8.00;;
24383;SDS011;12504;52.870;8.798;2024-01-07T09:13:27;34.30;;;17.75;;
24383;SDS011;12504;52.870;8.798;2024-01-07T09:15:53;19.60;;;12.15;;
24383;SDS011;12504;52.870;8.798;2024-01-07T09:18:19;18.88;;;11.95;;
24383;SDS011;12504;52.870;8.798;2024-01-07T09:20:46;14.30;;;8.45;;
24383;SDS011;12504;52.870;8.798;2024-01-07T09:23:12;42.00;;;25.35;;
24383;SDS011;12504;52.870;8.798;2024-01-07T09:25:40;7.18;;;5.18;;
24383;SDS011;12504;52.870;8.798;2024-01-07T09:28:06;8.60;;;2.75;;
24383;SDS011;12504;52.870;8.798;2024-01-07T09:30:32;7.38;;;2.03;;
24383;SDS011;12504;52.870;8.798;2024-01-07T09:32:58;7.53;;;1.90;;
24383;SDS011;12504;52.870;8.798;2024-01-07T09:35:24;3.75;;;1.83;;
24383;SDS011;12504;52.870;8.798;2024-01-07T09:37:50;4.90;;;2.17;;
24383;SDS011;12504;52.870;8.798;2024-01-07T09:40:17;8.15;;;2.05;;
24383;SDS011;12504;52.870;8.798;2024-01-07T09:42:44;6.63;;;1.42;;
24383;SDS011;12504;52.870;8.798;2024-01-07T09:45:10;4.90;;;2.08;;
24383;SDS011;12504;52.870;8.798;2024-01-07T09:47:38;3.80;;;1.60;;
24383;SDS011;12504;52.870;8.798;2024-01-07T09:50:06;2.33;;;1.52;;
24383;SDS011;12504;52.870;8.798;2024-01-07T09:52:34;2.30;;;1.90;;
24383;SDS011;12504;52.870;8.798;2024-01-07T09:55:02;2.63;;;1.67;;
24383;SDS011;12504;52.870;8.798;2024-01-07T09:57:29;4.60;;;1.85;;
24383;SDS011;12504;52.870;8.798;2024-01-07T09:59:55;4.40;;;1.55;;
24383;SDS011;12504;52.870;8.798;2024-01-07T10:02:21;13.07;;;6.22;;
24383;SDS011;12504;52.870;8.798;2024-01-07T10:04:48;13.40;;;5.00;;
24383;SDS011;12504;52.870;8.798;2024-01-07T10:07:15;27.48;;;11.57;;
24383;SDS011;12504;52.870;8.798;2024-01-07T10:09:42;10.73;;;4.68;;
24383;SDS011;12504;52.870;8.798;2024-01-07T10:12:09;53.05;;;22.48;;
24383;SDS011;12504;52.870;8.798;2024-01-07T10:14:37;101.15;;;38.38;;
24383;SDS011;12504;52.870;8.798;2024-01-07T10:17:14;15.48;;;8.52;;
24383;SDS011;12504;52.870;8.798;2024-01-07T10:19:42;8.38;;;3.33;;
24383;SDS011;12504;52.870;8.798;2024-01-07T10:22:08;4.80;;;2.40;;
24383;SDS011;12504;52.870;8.798;2024-01-07T10:24:36;13.85;;;2.53;;
24383;SDS011;12504;52.870;8.798;2024-01-07T10:27:03;4.32;;;2.67;;
24383;SDS011;12504;52.870;8.798;2024-01-07T10:29:30;5.07;;;3.03;;
24383;SDS011;12504;52.870;8.798;2024-01-07T10:31:59;4.70;;;2.83;;
24383;SDS011;12504;52.870;8.798;2024-01-07T10:34:31;9.35;;;5.30;;
24383;SDS011;12504;52.870;8.798;2024-01-07T10:36:58;8.85;;;4.55;;
24383;SDS011;12504;52.870;8.798;2024-01-07T10:39:25;7.28;;;4.05;;
24383;SDS011;12504;52.870;8.798;2024-01-07T10:41:57;8.63;;;2.83;;
24383;SDS011;12504;52.870;8.798;2024-01-07T10:44:25;4.60;;;2.55;;
24383;SDS011;12504;52.870;8.798;2024-01-07T10:46:52;8.68;;;3.38;;
24383;SDS011;12504;52.870;8.798;2024-01-07T10:49:20;9.07;;;5.32;;
24383;SDS011;12504;52.870;8.798;2024-01-07T10:51:48;6.28;;;2.88;;
24383;SDS011;12504;52.870;8.798;2024-01-07T10:54:16;15.05;;;6.88;;
24383;SDS011;12504;52.870;8.798;2024-01-07T10:56:48;13.10;;;5.50;;
24383;SDS011;12504;52.870;8.798;2024-01-07T10:59:16;8.68;;;5.13;;
24383;SDS011;12504;52.870;8.798;2024-01-07T11:01:43;23.27;;;9.57;;
24383;SDS011;12504;52.870;8.798;2024-01-07T11:11:58;11.95;;;4.28;;
24383;SDS011;12504;52.870;8.798;2024-01-07T11:14:34;15.85;;;8.38;;
24383;SDS011;12504;52.870;8.798;2024-01-07T11:17:01;12.32;;;7.57;;
24383;SDS011;12504;52.870;8.798;2024-01-07T11:19:28;19.02;;;8.85;;
24383;SDS011;12504;52.870;8.798;2024-01-07T11:24:39;9.18;;;4.88;;
24383;SDS011;12504;52.870;8.798;2024-01-07T11:27:08;6.63;;;4.18;;
24383;SDS011;12504;52.870;8.798;2024-01-07T11:29:35;16.45;;;6.25;;
24383;SDS011;12504;52.870;8.798;2024-01-07T11:32:01;15.80;;;6.28;;
24383;SDS011;12504;52.870;8.798;2024-01-07T11:34:40;14.80;;;6.57;;
24383;SDS011;12504;52.870;8.798;2024-01-07T11:37:07;9.73;;;3.90;;
24383;SDS011;12504;52.870;8.798;2024-01-07T11:39:36;7.65;;;4.40;;
24383;SDS011;12504;52.870;8.798;2024-01-07T11:42:03;19.13;;;8.85;;
24383;SDS011;12504;52.870;8.798;2024-01-07T11:44:29;12.07;;;5.55;;
24383;SDS011;12504;52.870;8.798;2024-01-07T11:46:55;6.47;;;3.22;;
24383;SDS011;12504;52.870;8.798;2024-01-07T11:49:21;3.95;;;3.15;;
24383;SDS011;12504;52.870;8.798;2024-01-07T11:51:46;9.65;;;3.10;;
24383;SDS011;12504;52.870;8.798;2024-01-07T11:54:12;9.00;;;3.45;;
24383;SDS011;12504;52.870;8.798;2024-01-07T11:56:39;4.72;;;2.92;;
24383;SDS011;12504;52.870;8.798;2024-01-07T11:59:05;4.22;;;2.40;;
24383;SDS011;12504;52.870;8.798;2024-01-07T12:01:31;3.83;;;2.30;;
24383;SDS011;12504;52.870;8.798;2024-01-07T12:03:57;7.18;;;3.70;;
24383;SDS011;12504;52.870;8.798;2024-01-07T12:06:22;5.00;;;2.83;;
24383;SDS011;12504;52.870;8.798;2024-01-07T12:08:49;4.43;;;2.50;;
24383;SDS011;12504;52.870;8.798;2024-01-07T12:11:16;3.17;;;2.45;;
24383;SDS011;12504;52.870;8.798;2024-01-07T12:13:42;8.55;;;2.58;;
24383;SDS011;12504;52.870;8.798;2024-01-07T12:16:08;4.75;;;2.88;;
24383;SDS011;12504;52.870;8.798;2024-01-07T12:18:37;4.97;;;2.70;;
24383;SDS011;12504;52.870;8.798;2024-01-07T12:21:07;4.47;;;2.28;;
24383;SDS011;12504;52.870;8.798;2024-01-07T12:23:36;4.55;;;2.30;;
24383;SDS011;12504;52.870;8.798;2024-01-07T12:26:09;5.35;;;3.13;;
24383;SDS011;12504;52.870;8.798;2024-01-07T12:28:36;8.40;;;2.67;;
24383;SDS011;12504;52.870;8.798;2024-01-07T12:31:02;4.63;;;2.80;;
24383;SDS011;12504;52.870;8.798;2024-01-07T12:33:29;6.80;;;3.33;;
24383;SDS011;12504;52.870;8.798;2024-01-07T12:35:56;8.10;;;3.00;;
24383;SDS011;12504;52.870;8.798;2024-01-07T12:38:29;4.20;;;2.55;;
24383;SDS011;12504;52.870;8.798;2024-01-07T12:40:56;10.73;;;3.30;;
24383;SDS011;12504;52.870;8.798;2024-01-07T12:43:22;5.55;;;2.92;;
24383;SDS011;12504;52.870;8.798;2024-01-07T12:45:48;5.40;;;2.85;;
24383;SDS011;12504;52.870;8.798;2024-01-07T12:48:14;9.43;;;3.15;;
24383;SDS011;12504;52.870;8.798;2024-01-07T12:50:41;7.18;;;3.00;;
24383;SDS011;12504;52.870;8.798;2024-01-07T12:53:07;5.47;;;3.08;;
24383;SDS011;12504;52.870;8.798;2024-01-07T12:55:33;5.13;;;2.95;;
24383;SDS011;12504;52.870;8.798;2024-01-07T12:58:00;5.85;;;2.67;;
24383;SDS011;12504;52.870;8.798;2024-01-07T13:00:26;8.38;;;3.38;;
24383;SDS011;12504;52.870;8.798;2024-01-07T13:02:53;5.05;;;2.47;;
24383;SDS011;12504;52.870;8.798;2024-01-07T13:05:19;6.82;;;3.65;;
24383;SDS011;12504;52.870;8.798;2024-01-07T13:07:48;8.02;;;3.15;;
24383;SDS011;12504;52.870;8.798;2024-01-07T13:10:15;10.32;;;3.85;;
24383;SDS011;12504;52.870;8.798;2024-01-07T13:12:41;5.30;;;2.47;;
24383;SDS011;12504;52.870;8.798;2024-01-07T13:15:08;6.80;;;3.80;;
24383;SDS011;12504;52.870;8.798;2024-01-07T13:17:34;6.57;;;3.53;;
24383;SDS011;12504;52.870;8.798;2024-01-07T13:20:00;4.95;;;2.78;;
24383;SDS011;12504;52.870;8.798;2024-01-07T13:22:26;6.88;;;3.28;;
24383;SDS011;12504;52.870;8.798;2024-01-07T13:24:52;5.43;;;2.83;;
24383;SDS011;12504;52.870;8.798;2024-01-07T13:27:19;7.50;;;4.03;;
24383;SDS011;12504;52.870;8.798;2024-01-07T13:29:48;6.47;;;3.30;;
24383;SDS011;12504;52.870;8.798;2024-01-07T13:32:14;5.95;;;3.15;;
24383;SDS011;12504;52.870;8.798;2024-01-07T13:34:42;4.13;;;2.38;;
24383;SDS011;12504;52.870;8.798;2024-01-07T13:37:09;10.10;;;3.83;;
24383;SDS011;12504;52.870;8.798;2024-01-07T13:39:35;5.28;;;2.78;;
24383;SDS011;12504;52.870;8.798;2024-01-07T13:42:01;4.90;;;2.85;;
24383;SDS011;12504;52.870;8.798;2024-01-07T13:44:28;5.05;;;2.83;;
24383;SDS011;12504;52.870;8.798;2024-01-07T13:46:54;4.45;;;2.13;;
24383;SDS011;12504;52.870;8.798;2024-01-07T13:49:20;11.10;;;2.67;;
24383;SDS011;12504;52.870;8.798;2024-01-07T13:51:46;5.15;;;3.30;;
24383;SDS011;12504;52.870;8.798;2024-01-07T13:54:12;5.93;;;2.65;;
24383;SDS011;12504;52.870;8.798;2024-01-07T13:56:42;6.90;;;3.25;;
24383;SDS011;12504;52.870;8.798;2024-01-07T13:59:09;6.15;;;2.58;;
24383;SDS011;12504;52.870;8.798;2024-01-07T14:01:36;6.70;;;3.03;;
24383;SDS011;12504;52.870;8.798;2024-01-07T14:04:05;4.65;;;2.33;;
24383;SDS011;12504;52.870;8.798;2024-01-07T14:06:31;3.70;;;2.30;;
24383;SDS011;12504;52.870;8.798;2024-01-07T14:08:58;9.40;;;2.67;;
24383;SDS011;12504;52.870;8.798;2024-01-07T14:11:24;11.85;;;2.72;;
24383;SDS011;12504;52.870;8.798;2024-01-07T14:13:51;5.60;;;2.80;;
24383;SDS011;12504;52.870;8.798;2024-01-07T14:16:17;7.10;;;2.92;;
24383;SDS011;12504;52.870;8.798;2024-01-07T14:18:44;6.13;;;2.58;;
24383;SDS011;12504;52.870;8.798;2024-01-07T14:21:10;5.05;;;2.30;;
24383;SDS011;12504;52.870;8.798;2024-01-07T14:23:36;5.65;;;3.05;;
24383;SDS011;12504;52.870;8.798;2024-01-07T14:26:02;5.60;;;2.65;;
24383;SDS011;12504;52.870;8.798;2024-01-07T14:28:29;6.95;;;3.10;;
24383;SDS011;12504;52.870;8.798;2024-01-07T14:30:55;7.03;;;2.70;;
24383;SDS011;12504;52.870;8.798;2024-01-07T14:33:21;6.68;;;2.50;;
24383;SDS011;12504;52.870;8.798;2024-01-07T14:35:47;6.32;;;2.47;;
24383;SDS011;12504;52.870;8.798;2024-01-07T14:38:13;4.35;;;2.22;;
24383;SDS011;12504;52.870;8.798;2024-01-07T14:40:39;4.65;;;2.40;;
24383;SDS011;12504;52.870;8.798;2024-01-07T14:43:06;3.58;;;2.03;;
24383;SDS011;12504;52.870;8.798;2024-01-07T14:45:32;5.93;;;2.47;;
24383;SDS011;12504;52.870;8.798;2024-01-07T14:47:59;4.35;;;2.22;;
24383;SDS011;12504;52.870;8.798;2024-01-07T14:50:25;4.95;;;1.88;;
24383;SDS011;12504;52.870;8.798;2024-01-07T14:52:51;13.55;;;6.13;;